Time;durP1;ratioP1;P1;durP2;ratioP2;P2;SDS_P1;SDS_P2;PMS_P1;PMS_P2;Temp;Humidity;BMP_temperature;BMP_pressure;BME280_temperature;BME280_humidity;BME280_pressure;Samples;Min_cycle;Max_cycle;Signal;HPM_P1;HPM_P2
2023/04/23 00:00:39;;;;;;;46.00;25.10;;;;;;;6.90;65.92;99750.71;134372;1303;22206;-73
2023/04/23 00:03:41;;;;;;;42.60;24.80;;;;;;;6.87;65.98;99752.23;134365;1298;22469;-75
2023/04/23 00:06:42;;;;;;;37.80;21.80;;;;;;;6.86;65.95;99748.52;134210;1299;22475;-72
2023/04/23 00:09:43;;;;;;;37.10;22.30;;;;;;;6.86;66.00;99745.65;134367;1299;23066;-72
2023/04/23 00:12:44;;;;;;;39.20;22.90;;;;;;;6.84;66.00;99746.23;134379;1299;22425;-72
2023/04/23 00:15:45;;;;;;;34.40;21.80;;;;;;;6.81;66.20;99740.73;134420;1298;22424;-73
2023/04/23 00:18:46;;;;;;;;;;;;;;;6.72;66.31;99740.33;134415;1296;23287;-75
2023/04/23 00:21:48;;;;;;;41.60;24.90;;;;;;;6.68;66.46;99740.79;134259;1295;22352;-73
2023/04/23 00:24:53;;;;;;;46.40;26.20;;;;;;;6.65;66.43;99737.36;134189;1296;22412;-73
2023/04/23 00:27:54;;;;;;;50.20;28.10;;;;;;;6.63;66.66;99740.34;134398;1296;22420;-72
2023/04/23 00:30:55;;;;;;;43.00;27.40;;;;;;;6.58;66.68;99738.25;134275;1298;22367;-73
2023/04/23 00:33:56;;;;;;;48.20;26.00;;;;;;;6.57;66.81;99735.41;134090;1302;22389;-72
2023/04/23 00:36:56;;;;;;;;;;;;;;;6.56;66.78;99734.94;134426;1296;22454;-72
2023/04/23 00:39:57;;;;;;;55.80;29.20;;;;;;;6.51;67.01;99730.45;134400;1296;22955;-72
2023/04/23 00:42:59;;;;;;;55.00;28.30;;;;;;;6.48;67.22;99724.29;134189;1296;22383;-72
2023/04/23 00:46:00;;;;;;;50.60;27.90;;;;;;;6.41;67.25;99723.92;134402;1295;22319;-72
2023/04/23 00:49:01;;;;;;;45.60;26.40;;;;;;;6.37;67.42;99719.45;134407;1298;22356;-72
2023/04/23 00:52:02;;;;;;;;;;;;;;;6.35;67.31;99713.25;134406;1299;22478;-73
2023/04/23 00:55:03;;;;;;;;;;;;;;;6.28;67.54;99717.56;134242;1298;23565;-72
2023/04/23 00:58:07;;;;;;;39.10;23.60;;;;;;;6.19;67.70;99715.16;134382;1296;22377;-73
2023/04/23 01:01:08;;;;;;;37.00;23.40;;;;;;;6.13;67.68;99713.98;134216;1299;22467;-72
2023/04/23 01:04:09;;;;;;;40.20;23.10;;;;;;;6.02;67.91;99716.63;134385;1300;22424;-72
2023/04/23 01:07:11;;;;;;;42.40;23.20;;;;;;;5.94;68.31;99717.20;134385;1295;22857;-73
2023/04/23 01:10:13;;;;;;;34.30;20.50;;;;;;;5.88;68.61;99721.23;134415;1298;24032;-74
2023/04/23 01:13:14;;;;;;;36.10;20.30;;;;;;;5.80;68.79;99717.05;134085;1301;22400;-72
2023/04/23 01:16:16;;;;;;;33.60;20.30;;;;;;;5.71;69.08;99718.98;134374;1298;23555;-78
2023/04/23 01:19:26;;;;;;;31.70;20.20;;;;;;;5.67;69.31;99714.67;134381;1297;23123;-72
2023/04/23 01:22:28;;;;;;;24.40;15.70;;;;;;;5.66;69.47;99716.52;134388;1298;22242;-72
2023/04/23 01:25:29;;;;;;;48.90;28.30;;;;;;;5.67;69.71;99711.63;134398;1296;22260;-73
2023/04/23 01:28:30;;;;;;;49.50;24.40;;;;;;;5.69;69.93;99710.60;134182;1298;22344;-72
2023/04/23 01:31:31;;;;;;;38.00;23.30;;;;;;;5.70;70.05;99709.98;134148;1298;22479;-72
2023/04/23 01:34:33;;;;;;;37.20;23.40;;;;;;;5.69;70.08;99706.75;134382;1298;22409;-72
2023/04/23 01:37:37;;;;;;;39.10;23.90;;;;;;;5.66;70.07;99703.34;134160;1304;23094;-72
2023/04/23 01:40:37;;;;;;;40.10;24.40;;;;;;;5.64;70.19;99704.08;134260;1298;22429;-79
2023/04/23 01:43:41;;;;;;;39.90;24.40;;;;;;;5.62;70.27;99701.79;134361;1301;23060;-71
2023/04/23 01:46:42;;;;;;;39.60;24.30;;;;;;;5.61;70.30;99698.13;134062;1298;22471;-73
2023/04/23 01:49:43;;;;;;;32.50;21.10;;;;;;;5.61;70.36;99700.80;134093;1298;23143;-72
2023/04/23 01:52:46;;;;;;;;;;;;;;;5.64;70.43;99697.92;134414;1297;23301;-73
2023/04/23 01:55:53;;;;;;;35.60;20.70;;;;;;;5.69;70.43;99700.48;134383;1298;23718;-73
2023/04/23 01:58:54;;;;;;;34.80;20.90;;;;;;;5.70;70.74;99700.14;134166;1299;22374;-71
2023/04/23 02:01:55;;;;;;;35.90;21.00;;;;;;;5.64;71.24;99695.79;134120;1301;22169;-73
2023/04/23 02:04:57;;;;;;;38.80;21.90;;;;;;;5.59;71.32;99694.33;134414;1299;22377;-72
2023/04/23 02:07:58;;;;;;;40.60;22.60;;;;;;;5.60;71.25;99695.62;134235;1298;22518;-72
2023/04/23 02:11:02;;;;;;;40.30;21.10;;;;;;;5.64;71.07;99691.21;134345;1297;22318;-72
2023/04/23 02:14:05;;;;;;;34.00;21.00;;;;;;;5.70;71.02;99691.74;134230;1296;22340;-72
2023/04/23 02:17:05;;;;;;;30.40;19.60;;;;;;;5.74;70.98;99688.48;134063;1298;22309;-72
2023/04/23 02:20:08;;;;;;;30.50;18.90;;;;;;;5.76;71.01;99682.57;134413;1298;22442;-72
2023/04/23 02:23:09;;;;;;;28.00;18.90;;;;;;;5.74;71.11;99681.17;134192;1298;22469;-73
2023/04/23 02:26:10;;;;;;;29.80;19.40;;;;;;;5.71;71.20;99682.13;134185;1299;22422;-72
2023/04/23 02:29:10;;;;;;;32.20;20.20;;;;;;;5.66;71.57;99682.27;134257;1296;184325;-72
2023/04/23 02:32:11;;;;;;;33.90;18.60;;;;;;;5.54;71.47;99676.19;134388;1296;22347;-72
2023/04/23 02:35:12;;;;;;;;;;;;;;;5.50;71.58;99678.34;134397;1299;22573;-73
2023/04/23 02:38:14;;;;;;;32.40;17.30;;;;;;;5.52;71.54;99677.30;134252;1298;22418;-72
2023/04/23 02:41:15;;;;;;;32.50;18.20;;;;;;;5.61;71.55;99681.04;134161;1302;22365;-72
2023/04/23 02:44:16;;;;;;;31.60;18.90;;;;;;;5.69;71.48;99676.57;134147;1299;23038;-72
2023/04/23 02:47:16;;;;;;;39.50;19.30;;;;;;;5.73;71.50;99679.51;134192;1297;22492;-72
2023/04/23 02:50:17;;;;;;;28.70;17.10;;;;;;;5.72;71.24;99676.41;134403;1296;23401;-72
2023/04/23 02:53:18;;;;;;;28.20;17.50;;;;;;;5.70;71.37;99676.08;134392;1296;23194;-72
2023/04/23 02:56:19;;;;;;;31.60;17.70;;;;;;;5.66;71.53;99673.34;134192;1299;22370;-73
2023/04/23 02:59:20;;;;;;;31.70;17.40;;;;;;;5.59;71.44;99672.27;134222;1297;22954;-72
2023/04/23 03:02:21;;;;;;;28.80;17.60;;;;;;;5.49;71.57;99672.31;134180;1298;22407;-74
2023/04/23 03:05:24;;;;;;;;;;;;;;;5.41;71.77;99676.19;134206;1296;22625;-72
2023/04/23 03:08:26;;;;;;;28.60;17.10;;;;;;;5.33;71.91;99675.53;134372;1300;23062;-72
2023/04/23 03:11:35;;;;;;;29.90;18.50;;;;;;;5.32;71.95;99675.00;134191;1298;22369;-72
2023/04/23 03:14:36;;;;;;;29.20;19.30;;;;;;;5.32;72.16;99676.01;134357;1299;22459;-72
2023/04/23 03:17:37;;;;;;;;;;;;;;;5.32;72.13;99675.62;134402;1297;26752;-74
2023/04/23 03:20:38;;;;;;;;;;;;;;;5.31;72.27;99674.36;134159;1300;22619;-80
2023/04/23 03:23:57;;;;;;;30.90;16.90;;;;;;;5.30;72.24;99672.91;134246;1298;22328;-71
2023/04/23 03:27:07;;;;;;;31.00;18.60;;;;;;;5.31;72.40;99674.17;134165;1299;23104;-72
2023/04/23 03:30:19;;;;;;;;;;;;;;;;;;;;;
2023/04/23 03:33:23;;;;;;;29.10;18.30;;;;;;;5.32;72.43;99674.55;134174;1304;22455;-74
2023/04/23 03:36:23;;;;;;;28.20;18.80;;;;;;;5.33;72.47;99673.30;134333;1299;22425;-72
2023/04/23 03:39:27;;;;;;;31.70;19.30;;;;;;;5.28;72.60;99670.94;134394;1298;22837;-72
2023/04/23 03:42:28;;;;;;;35.30;19.60;;;;;;;5.24;72.71;99676.02;134351;1299;22351;-72
2023/04/23 03:45:30;;;;;;;34.40;20.00;;;;;;;5.17;72.84;99673.00;134348;1298;23122;-77
2023/04/23 03:48:31;;;;;;;35.70;20.40;;;;;;;5.12;72.61;99669.63;134368;1298;22484;-74
2023/04/23 03:51:32;;;;;;;30.40;19.30;;;;;;;5.12;72.87;99668.59;134183;1296;22446;-72
2023/04/23 03:54:33;;;;;;;38.00;21.00;;;;;;;5.11;72.91;99670.44;134103;1301;22401;-73
2023/04/23 03:57:54;;;;;;;30.10;19.30;;;;;;;5.13;73.25;99663.77;134395;1297;23089;-72
2023/04/23 04:00:58;;;;;;;29.90;20.70;;;;;;;5.16;73.33;99668.05;134121;1302;22493;-72
2023/04/23 04:04:01;;;;;;;29.40;19.50;;;;;;;5.19;73.70;99667.38;134407;1298;25175;-77
2023/04/23 04:07:06;;;;;;;33.90;19.70;;;;;;;5.24;73.73;99668.33;134161;1299;22876;-72
2023/04/23 04:10:08;;;;;;;33.90;20.20;;;;;;;5.36;73.63;99664.02;134218;1296;22203;-73
2023/04/23 04:13:08;;;;;;;31.40;20.30;;;;;;;5.56;73.74;99666.38;134210;1304;23108;-80
2023/04/23 04:16:19;;;;;;;;;;;;;;;;;;;;;
2023/04/23 04:19:27;;;;;;;30.30;18.10;;;;;;;6.10;73.31;99671.63;134133;1299;22433;-72
2023/04/23 04:22:31;;;;;;;31.50;19.80;;;;;;;6.43;73.18;99665.23;134431;1295;22549;-77
2023/04/23 04:25:32;;;;;;;32.20;20.40;;;;;;;6.68;72.90;99665.19;134401;1297;22420;-72
2023/04/23 04:28:35;;;;;;;28.70;21.10;;;;;;;7.01;72.84;99665.23;134371;1302;22384;-79
2023/04/23 04:31:36;;;;;;;33.30;20.70;;;;;;;7.38;72.64;99662.54;134397;1299;22413;-74
2023/04/23 04:34:38;;;;;;;34.50;21.30;;;;;;;7.65;72.05;99660.91;134047;1304;22412;-72
2023/04/23 04:37:41;;;;;;;31.80;20.90;;;;;;;8.08;72.09;99657.91;134181;1299;22954;-73
2023/04/23 04:40:42;;;;;;;35.40;21.90;;;;;;;8.61;71.67;99655.45;134220;1298;22380;-72
2023/04/23 04:43:44;;;;;;;;;;;;;;;9.10;71.10;99652.11;134420;1298;22487;-73
2023/04/23 04:46:44;;;;;;;32.20;20.00;;;;;;;9.63;70.59;99653.30;134387;1296;22409;-77
2023/04/23 04:49:45;;;;;;;;;;;;;;;10.12;69.75;99651.43;134234;1302;23120;-72
2023/04/23 04:52:46;;;;;;;32.30;20.90;;;;;;;10.59;69.18;99652.06;134401;1298;22358;-74
2023/04/23 04:55:50;;;;;;;36.50;21.90;;;;;;;11.15;68.54;99652.23;134426;1301;22412;-73
2023/04/23 04:58:51;;;;;;;37.70;21.30;;;;;;;11.68;67.89;99653.92;134392;1304;22231;-72
2023/04/23 05:01:52;;;;;;;30.00;20.20;;;;;;;12.22;67.12;99647.33;134291;1302;23227;-74
2023/04/23 05:04:53;;;;;;;33.20;21.90;;;;;;;12.71;66.13;99641.13;134392;1298;22489;-73
2023/04/23 05:07:57;;;;;;;32.20;20.10;;;;;;;13.07;65.31;99639.39;134385;1298;22417;-73
2023/04/23 05:11:05;;;;;;;31.30;20.20;;;;;;;13.47;64.98;99636.41;134398;1298;23018;-74
2023/04/23 05:14:26;;;;;;;30.30;19.40;;;;;;;13.97;64.36;99639.42;134356;1296;22483;-79
2023/04/23 05:17:27;;;;;;;36.20;21.40;;;;;;;14.48;63.47;99638.16;134315;1285;22383;-79
2023/04/23 05:20:31;;;;;;;26.60;17.90;;;;;;;14.99;62.77;99636.23;134370;1296;23096;-79
2023/04/23 05:23:37;;;;;;;27.70;19.40;;;;;;;15.44;61.32;99632.01;134368;1296;22333;-80
2023/04/23 05:26:38;;;;;;;28.20;19.00;;;;;;;15.79;60.43;99628.33;134360;1296;22486;-79
2023/04/23 05:29:40;;;;;;;30.30;19.70;;;;;;;15.94;59.72;99627.66;134346;1296;22173;-80
2023/04/23 05:32:46;;;;;;;26.00;15.90;;;;;;;16.18;58.72;99625.46;134386;1296;23302;-81
2023/04/23 05:35:50;;;;;;;23.40;15.20;;;;;;;16.30;56.84;99624.43;134340;1297;23214;-79
2023/04/23 05:38:51;;;;;;;22.70;15.70;;;;;;;16.14;55.76;99626.09;134347;1298;22473;-80
2023/04/23 05:41:52;;;;;;;26.60;15.60;;;;;;;16.08;55.08;99627.33;134183;1299;22351;-80
2023/04/23 05:44:56;;;;;;;28.00;14.90;;;;;;;16.15;55.11;99624.73;134184;1298;22369;-79
2023/04/23 05:48:00;;;;;;;24.30;15.60;;;;;;;16.45;54.80;99624.20;134360;1298;22334;-79
2023/04/23 05:51:01;;;;;;;22.10;15.20;;;;;;;16.61;53.73;99623.64;134368;1298;22232;-79
2023/04/23 05:54:02;;;;;;;20.40;14.90;;;;;;;16.68;53.73;99621.35;134392;1298;22173;-79
2023/04/23 05:57:34;;;;;;;26.40;15.50;;;;;;;16.69;52.85;99618.25;134349;1298;22437;-80
2023/04/23 06:00:36;;;;;;;24.20;15.90;;;;;;;16.69;52.44;99613.06;134386;1304;22371;-79
2023/04/23 06:03:44;;;;;;;22.40;14.90;;;;;;;16.83;52.42;99614.89;134363;1296;22415;-79
2023/04/23 06:07:20;;;;;;;;;;;;;;;;;;;;;
2023/04/23 06:10:23;;;;;;;23.30;13.50;;;;;;;17.13;50.49;99610.58;134235;1298;22363;-78
2023/04/23 06:13:45;;;;;;;20.50;13.60;;;;;;;17.03;50.24;99611.92;134298;1298;23698;-79
2023/04/23 06:17:27;;;;;;;18.80;12.60;;;;;;;16.94;49.47;99609.34;134330;1298;22253;-79
2023/04/23 06:20:50;;;;;;;17.90;11.40;;;;;;;16.77;49.30;99608.63;134256;1296;22370;-78
2023/04/23 06:23:52;;;;;;;20.40;12.10;;;;;;;16.78;49.57;99606.04;134393;1298;22394;-83
2023/04/23 06:26:58;;;;;;;20.30;11.60;;;;;;;16.90;49.19;99606.84;134170;1299;22436;-83
2023/04/23 06:30:13;;;;;;;17.50;10.60;;;;;;;16.96;48.53;99610.38;134239;1287;22389;-85
2023/04/23 06:33:36;;;;;;;;;;;;;;;;;;;;;
2023/04/23 06:36:42;;;;;;;17.00;9.40;;;;;;;17.15;48.51;99607.19;134332;1298;23193;-84
2023/04/23 06:39:46;;;;;;;18.00;9.70;;;;;;;17.37;47.76;99606.83;134367;1296;23107;-85
2023/04/23 06:42:57;;;;;;;20.70;10.70;;;;;;;17.56;48.11;99599.87;134413;1296;23008;-84
2023/04/23 06:46:56;;;;;;;;;;;;;;;;;;;;;
2023/04/23 06:49:59;;;;;;;16.20;10.00;;;;;;;18.07;47.04;99593.17;134309;1296;22290;-89
2023/04/23 06:53:03;;;;;;;17.40;9.60;;;;;;;18.21;47.32;99588.60;134259;1298;22307;-84
2023/04/23 06:56:34;;;;;;;13.50;8.60;;;;;;;18.40;47.50;99580.53;134328;1296;22331;-86
2023/04/23 06:59:38;;;;;;;16.20;9.20;;;;;;;18.55;46.38;99579.08;134335;1299;22551;-91
2023/04/23 07:02:39;;;;;;;19.10;10.10;;;;;;;18.53;45.25;99577.95;134267;1296;22410;-89
2023/04/23 07:05:42;;;;;;;16.00;9.40;;;;;;;18.51;45.22;99574.20;134447;1296;22401;-89
2023/04/23 07:09:17;;;;;;;17.40;8.30;;;;;;;18.49;44.58;99571.99;134344;1296;23165;-90
2023/04/23 07:12:37;;;;;;;16.00;8.50;;;;;;;18.53;44.47;99570.98;134315;1298;22387;-90
2023/04/23 07:16:22;;;;;;;;;;;;;;;;;;;;;
2023/04/23 07:20:12;;;;;;;13.60;8.80;;;;;;;19.22;45.09;99575.08;134357;1296;22160;-90
2023/04/23 07:23:18;;;;;;;12.90;7.40;;;;;;;19.64;44.40;99568.20;134040;1297;22417;-89
2023/04/23 07:26:20;;;;;;;11.60;7.60;;;;;;;19.72;42.59;99566.85;134344;1298;22369;-88
2023/04/23 07:29:21;;;;;;;13.70;7.60;;;;;;;19.67;42.69;99563.39;134383;1296;22359;-87
2023/04/23 07:32:24;;;;;;;14.70;7.00;;;;;;;19.83;42.74;99559.20;134321;1297;23955;-89
2023/04/23 07:35:48;;;;;;;13.00;6.80;;;;;;;19.94;41.87;99561.41;134405;1297;22332;-82
2023/04/23 07:38:52;;;;;;;10.70;6.30;;;;;;;19.81;40.98;99560.58;134363;1296;22376;-82
2023/04/23 07:41:57;;;;;;;14.70;7.50;;;;;;;19.84;41.44;99561.77;134173;1296;22338;-86
2023/04/23 07:44:58;;;;;;;8.90;6.20;;;;;;;20.03;41.61;99558.98;134385;1298;22116;-79
2023/04/23 07:48:12;;;;;;;;;;;;;;;;;;;;;
2023/04/23 07:51:13;;;;;;;10.40;6.20;;;;;;;20.52;41.03;99545.81;134303;1299;23161;-80
2023/04/23 07:54:19;;;;;;;11.20;6.10;;;;;;;20.53;40.50;99543.39;134379;1297;22463;-81
2023/04/23 07:57:26;;;;;;;7.60;5.20;;;;;;;20.62;41.03;99544.41;134267;1299;22539;-78
2023/04/23 08:00:31;;;;;;;12.30;6.40;;;;;;;20.91;41.08;99540.92;134407;1295;22397;-78
2023/04/23 08:03:35;;;;;;;10.60;6.10;;;;;;;21.13;40.12;99539.63;134397;1302;22431;-77
2023/04/23 08:06:41;;;;;;;12.70;5.80;;;;;;;21.14;39.27;99542.49;134420;1304;22448;-77
2023/04/23 08:10:06;;;;;;;9.80;5.60;;;;;;;21.14;39.69;99539.89;134399;1297;22439;-78
2023/04/23 08:13:22;;;;;;;9.00;5.50;;;;;;;21.23;39.09;99539.10;134415;1296;22953;-78
2023/04/23 08:16:23;;;;;;;12.60;5.90;;;;;;;21.23;38.53;99529.23;134411;1295;22352;-78
2023/04/23 08:19:46;;;;;;;11.20;5.10;;;;;;;21.17;38.32;99524.30;134371;1298;23058;-78
2023/04/23 08:23:15;;;;;;;9.50;5.00;;;;;;;21.21;37.93;99528.98;134414;1296;22399;-78
2023/04/23 08:26:45;;;;;;;9.80;4.50;;;;;;;21.25;37.87;99526.70;134292;1298;22504;-78
2023/04/23 08:30:06;;;;;;;;;;;;;;;;;;;;;
2023/04/23 08:33:07;;;;;;;8.80;5.40;;;;;;;21.36;38.04;99523.91;134385;1299;22343;-77
2023/04/23 08:36:21;;;;;;;;;;;;;;;;;;;;;
2023/04/23 08:39:33;;;;;;;13.30;5.80;;;;;;;21.67;38.15;99518.37;134279;1298;22589;-78
2023/04/23 08:43:05;;;;;;;7.80;4.70;;;;;;;21.95;37.79;99516.05;134243;1298;22202;-78
2023/04/23 08:46:15;;;;;;;7.00;4.80;;;;;;;22.08;37.26;99514.12;134411;1296;23246;-77
2023/04/23 08:49:17;;;;;;;9.40;5.30;;;;;;;22.06;37.93;99508.85;134390;1296;22483;-78
2023/04/23 08:53:07;;;;;;;10.00;5.40;;;;;;;22.23;37.94;99505.30;134413;1298;22431;-78
2023/04/23 08:56:13;;;;;;;10.00;4.90;;;;;;;22.39;37.54;99503.64;134439;1299;23223;-77
2023/04/23 08:59:18;;;;;;;9.80;4.80;;;;;;;22.29;37.45;99500.10;134406;1299;22425;-78
2023/04/23 09:02:54;;;;;;;10.80;5.20;;;;;;;22.21;37.52;99497.77;134414;1296;24897;-77
2023/04/23 09:06:03;;;;;;;12.20;4.60;;;;;;;22.13;37.45;99490.45;134258;1283;22359;-78
2023/04/23 09:09:06;;;;;;;12.00;5.80;;;;;;;22.26;37.98;99492.77;134243;1297;23060;-78
2023/04/23 09:12:08;;;;;;;11.10;6.30;;;;;;;22.46;37.67;99489.80;134422;1298;22512;-78
2023/04/23 09:15:11;;;;;;;9.10;4.70;;;;;;;22.47;37.00;99489.20;134418;1296;22473;-78
2023/04/23 09:18:25;;;;;;;9.60;5.00;;;;;;;22.53;37.41;99484.65;134069;1304;24376;-78
2023/04/23 09:21:29;;;;;;;8.20;4.60;;;;;;;22.45;37.11;99485.14;134246;1297;22411;-78
2023/04/23 09:24:36;;;;;;;10.10;4.40;;;;;;;22.40;37.08;99485.16;134279;1298;25213;-79
2023/04/23 09:27:40;;;;;;;10.60;5.40;;;;;;;22.39;37.06;99484.07;134098;1298;22167;-78
2023/04/23 09:30:50;;;;;;;9.10;4.80;;;;;;;22.53;37.22;99483.03;134180;1298;22564;-78
2023/04/23 09:34:06;;;;;;;12.10;4.80;;;;;;;22.54;37.06;99480.02;134112;1298;22390;-78
2023/04/23 09:37:09;;;;;;;8.60;4.90;;;;;;;22.60;37.17;99476.15;134221;1298;22355;-77
2023/04/23 09:40:13;;;;;;;11.60;5.00;;;;;;;22.63;37.30;99473.25;134142;1300;23108;-78
2023/04/23 09:43:16;;;;;;;6.10;4.30;;;;;;;22.62;37.28;99470.54;134093;1300;23123;-78
2023/04/23 09:46:35;;;;;;;8.30;4.80;;;;;;;22.71;37.51;99464.48;134225;1301;22347;-78
2023/04/23 09:49:46;;;;;;;9.00;5.10;;;;;;;22.87;37.43;99460.13;134110;1299;22467;-78
2023/04/23 09:53:13;;;;;;;10.60;5.70;;;;;;;22.93;37.34;99456.95;133958;1299;22474;-77
2023/04/23 09:56:14;;;;;;;6.90;4.90;;;;;;;23.03;37.05;99458.23;134248;1297;22182;-78
2023/04/23 09:59:27;;;;;;;5.20;4.50;;;;;;;23.11;36.81;99456.63;134243;1298;22359;-78
2023/04/23 10:02:49;;;;;;;8.30;4.60;;;;;;;23.19;36.86;99452.00;134209;1299;25179;-78
2023/04/23 10:06:27;;;;;;;;;;;;;;;;;;;;;
2023/04/23 10:09:40;;;;;;;8.50;4.30;;;;;;;23.07;36.28;99449.85;134209;1298;22354;-78
2023/04/23 10:12:59;;;;;;;11.70;5.10;;;;;;;22.78;36.61;99443.52;134124;1305;22411;-78
2023/04/23 10:16:04;;;;;;;7.80;4.30;;;;;;;22.49;36.82;99442.23;134244;1298;23102;-79
2023/04/23 10:19:45;;;;;;;;;;;;;;;;;;;;;
2023/04/23 10:22:57;;;;;;;6.50;3.70;;;;;;;22.44;37.25;99438.86;134212;1299;22983;-78
2023/04/23 10:25:59;;;;;;;5.50;3.70;;;;;;;22.46;37.26;99442.29;134260;1297;22498;-79
2023/04/23 10:29:25;;;;;;;8.10;3.30;;;;;;;22.67;37.24;99441.31;134255;1298;22503;-77
2023/04/23 10:32:27;;;;;;;5.30;3.40;;;;;;;22.85;36.99;99438.69;134090;1301;22437;-78
2023/04/23 10:35:57;;;;;;;6.80;3.30;;;;;;;22.87;37.39;99438.37;134244;1298;22365;-78
2023/04/23 10:39:05;;;;;;;6.20;3.90;;;;;;;23.02;37.66;99434.45;134117;1298;22363;-78
2023/04/23 10:42:24;;;;;;;6.40;3.90;;;;;;;23.25;37.67;99432.05;134239;1298;22425;-78
2023/04/23 10:45:42;;;;;;;6.50;3.90;;;;;;;23.45;37.09;99433.49;134281;1298;22453;-78
2023/04/23 10:49:32;;;;;;;;;;;;;;;;;;;;;
2023/04/23 10:53:06;;;;;;;7.90;5.00;;;;;;;23.45;36.27;99423.69;134134;1298;22229;-78
2023/04/23 10:56:22;;;;;;;7.50;3.90;;;;;;;23.24;37.28;99430.90;134238;1298;23661;-78
2023/04/23 10:59:49;;;;;;;5.70;4.10;;;;;;;23.27;37.53;99431.39;134090;1301;22247;-78
2023/04/23 11:04:07;;;;;;;;;;;;;;;;;;;;;
2023/04/23 11:07:43;;;;;;;;;;;;;;;;;;;;;
2023/04/23 11:11:47;;;;;;;;;;;;;;;;;;;;;
2023/04/23 11:14:54;;;;;;;18.90;3.90;;;;;;;22.56;38.47;99437.80;134223;1297;23105;-78
2023/04/23 11:18:01;;;;;;;9.80;4.10;;;;;;;22.34;38.59;99440.48;134063;1301;22357;-78
2023/04/23 11:21:24;;;;;;;;;;;;;;;;;;;;;
2023/04/23 11:24:59;;;;;;;7.70;4.10;;;;;;;22.06;39.34;99439.75;134388;1296;22414;-78
2023/04/23 11:28:38;;;;;;;;;;;;;;;;;;;;;
2023/04/23 11:32:12;;;;;;;6.70;4.00;;;;;;;21.78;39.73;99439.84;134135;1304;22447;-78
2023/04/23 11:35:43;;;;;;;5.90;3.90;;;;;;;21.68;40.30;99438.42;134375;1297;23137;-77
2023/04/23 11:39:17;;;;;;;;;;;;;;;;;;;;;
2023/04/23 11:42:49;;;;;;;9.90;4.70;;;;;;;21.61;40.79;99441.54;134382;1304;22405;-78
2023/04/23 11:46:29;;;;;;;7.30;4.00;;;;;;;21.56;41.02;99443.91;134257;1298;22507;-78
2023/04/23 11:50:39;;;;;;;7.20;4.20;;;;;;;21.52;41.32;99441.50;134430;1300;23137;-77
2023/04/23 11:53:24;;;;;;;7.50;4.00;;;;;;;21.43;41.50;99440.81;134258;1289;22444;-79
2023/04/23 11:56:42;;;;;;;;;;;;;;;;;;;;;
2023/04/23 12:00:17;;;;;;;;;;;;;;;;;;;;;
2023/04/23 12:03:34;;;;;;;6.20;3.80;;;;;;;21.31;42.00;99448.13;134311;1295;22213;-80
2023/04/23 12:06:54;;;;;;;7.70;4.30;;;;;;;21.30;42.01;99445.08;134227;1295;22519;-78
2023/04/23 12:10:16;;;;;;;9.30;3.90;;;;;;;21.38;42.01;99444.00;134261;1298;22434;-78
2023/04/23 12:13:36;;;;;;;6.10;4.20;;;;;;;21.49;42.01;99445.90;134441;1296;22452;-78
2023/04/23 12:16:44;;;;;;;4.60;3.80;;;;;;;21.62;42.13;99449.38;134441;1295;22467;-78
2023/04/23 12:19:45;;;;;;;5.30;3.80;;;;;;;21.67;42.31;99445.01;134243;1298;22413;-78
2023/04/23 12:22:49;;;;;;;7.70;4.20;;;;;;;21.68;42.17;99443.65;134450;1297;22463;-78
2023/04/23 12:25:53;;;;;;;5.60;3.90;;;;;;;21.70;42.16;99444.05;134401;1292;23276;-78
2023/04/23 12:28:59;;;;;;;7.50;3.50;;;;;;;21.74;42.33;99441.55;134374;1304;22422;-78
2023/04/23 12:31:59;;;;;;;6.40;4.20;;;;;;;21.78;42.09;99439.64;134188;1299;22180;-78
2023/04/23 12:35:08;;;;;;;8.40;3.60;;;;;;;21.75;42.06;99443.13;134422;1298;23203;-78
2023/04/23 12:38:35;;;;;;;12.20;4.20;;;;;;;21.78;42.38;99444.29;134431;1295;23261;-78
2023/04/23 12:41:36;;;;;;;10.90;4.00;;;;;;;21.79;42.59;99442.52;134183;1299;22430;-78
2023/04/23 12:44:41;;;;;;;6.70;4.20;;;;;;;21.84;43.03;99440.57;134401;1299;22421;-78
2023/04/23 12:47:42;;;;;;;8.00;4.40;;;;;;;21.91;42.98;99439.55;134386;1298;23161;-78
2023/04/23 12:50:48;;;;;;;9.50;4.60;;;;;;;21.94;43.15;99435.52;134419;1295;22216;-79
2023/04/23 12:53:52;;;;;;;9.70;3.80;;;;;;;22.03;43.28;99433.68;134401;1302;22427;-78
2023/04/23 12:57:02;;;;;;;6.10;3.60;;;;;;;22.09;43.07;99431.94;134411;1296;22411;-78
2023/04/23 13:00:10;;;;;;;11.90;3.30;;;;;;;22.05;42.81;99427.38;134422;1295;22476;-77
2023/04/23 13:03:14;;;;;;;5.40;3.30;;;;;;;21.93;42.42;99430.79;134394;1296;22404;-78
2023/04/23 13:06:25;;;;;;;8.40;3.10;;;;;;;21.91;42.62;99431.38;134375;1296;22312;-78
2023/04/23 13:09:34;;;;;;;7.30;2.90;;;;;;;22.00;42.82;99439.71;134398;1296;22399;-78
2023/04/23 13:12:35;;;;;;;5.00;3.10;;;;;;;21.98;42.43;99435.21;134371;1303;23037;-78
2023/04/23 13:15:57;;;;;;;5.70;3.30;;;;;;;21.87;42.47;99439.34;134235;1298;22545;-77
2023/04/23 13:19:01;;;;;;;8.40;3.70;;;;;;;21.76;43.10;99440.59;134409;1296;22417;-75
2023/04/23 13:22:04;;;;;;;7.20;3.10;;;;;;;21.76;43.60;99442.04;134412;1296;22220;-76
2023/04/23 13:25:05;;;;;;;6.40;3.60;;;;;;;21.70;43.58;99443.02;134437;1297;22379;-76
2023/04/23 13:28:09;;;;;;;4.90;3.60;;;;;;;21.59;43.65;99445.40;134363;1297;22347;-76
2023/04/23 13:31:30;;;;;;;4.20;3.10;;;;;;;21.48;43.82;99439.48;134381;1296;22336;-76
2023/04/23 13:34:34;;;;;;;7.40;3.90;;;;;;;21.42;44.21;99439.35;134376;1299;22455;-76
2023/04/23 13:37:56;;;;;;;;;;;;;;;;;;;;;
2023/04/23 13:41:30;;;;;;;6.20;3.90;;;;;;;21.30;44.71;99439.15;134311;1296;22460;-76
2023/04/23 13:44:37;;;;;;;5.40;3.60;;;;;;;21.33;44.90;99440.95;134340;1298;23064;-76
2023/04/23 13:47:41;;;;;;;7.50;3.60;;;;;;;21.32;45.05;99441.38;134380;1299;23311;-77
2023/04/23 13:50:48;;;;;;;3.20;2.50;;;;;;;21.31;44.99;99441.86;134377;1304;23309;-76
2023/04/23 13:54:00;;;;;;;;;;;;;;;;;;;;;
2023/04/23 13:57:04;;;;;;;7.30;3.20;;;;;;;21.30;45.42;99441.02;134398;1298;22519;-76
2023/04/23 14:00:06;;;;;;;3.10;2.40;;;;;;;21.28;45.45;99438.80;134418;1301;23577;-77
2023/04/23 14:03:18;;;;;;;4.20;2.50;;;;;;;21.26;45.60;99435.81;134242;1304;23287;-76
2023/04/23 14:06:22;;;;;;;4.10;2.90;;;;;;;21.18;45.72;99438.41;134408;1297;22135;-76
2023/04/23 14:09:23;;;;;;;4.60;2.90;;;;;;;21.08;45.97;99438.52;134378;1299;22400;-75
2023/04/23 14:12:54;;;;;;;4.30;2.80;;;;;;;20.79;45.34;99441.63;134406;1296;22520;-77
2023/04/23 14:16:28;;;;;;;6.60;2.70;;;;;;;20.46;45.63;99445.30;134245;1298;22365;-77
2023/04/23 14:19:43;;;;;;;3.40;2.30;;;;;;;20.29;45.99;99452.54;134155;1298;23283;-76
2023/04/23 14:22:59;;;;;;;3.60;2.10;;;;;;;20.18;45.83;99449.20;134401;1299;22432;-76
2023/04/23 14:26:10;;;;;;;6.60;2.30;;;;;;;20.06;45.65;99451.12;134386;1298;22425;-75
2023/04/23 14:29:39;;;;;;;12.90;2.40;;;;;;;20.00;45.88;99451.39;134108;1292;181975;-76
2023/04/23 14:32:45;;;;;;;2.30;2.10;;;;;;;20.01;46.20;99451.66;134263;1299;22464;-75
2023/04/23 14:35:46;;;;;;;3.60;2.30;;;;;;;20.04;46.18;99447.30;134416;1297;22381;-76
2023/04/23 14:39:04;;;;;;;5.30;2.40;;;;;;;20.07;46.20;99449.35;134444;1297;23023;-73
2023/04/23 14:42:17;;;;;;;3.90;2.40;;;;;;;20.14;46.41;99449.15;134413;1298;22190;-74
2023/04/23 14:45:18;;;;;;;5.30;2.40;;;;;;;20.19;46.14;99448.88;134422;1297;22418;-73
2023/04/23 14:48:19;;;;;;;3.90;2.30;;;;;;;20.17;46.21;99446.09;134177;1299;22233;-81
2023/04/23 14:51:20;;;;;;;5.90;2.70;;;;;;;20.15;46.30;99448.41;134316;1296;22422;-75
2023/04/23 14:54:21;;;;;;;6.80;2.90;;;;;;;20.16;46.23;99446.91;134365;1301;23281;-75
2023/04/23 14:57:22;;;;;;;5.30;3.70;;;;;;;20.23;46.24;99449.92;134147;1302;22354;-75
2023/04/23 15:00:24;;;;;;;3.10;2.80;;;;;;;20.28;46.20;99448.76;134159;1299;22390;-70
2023/04/23 15:03:26;;;;;;;12.70;5.10;;;;;;;20.33;46.13;99450.02;134351;1298;23156;-71
2023/04/23 15:06:37;;;;;;;;;;;;;;;;;;;;;
2023/04/23 15:09:38;;;;;;;14.20;8.90;;;;;;;20.20;46.12;99447.02;134351;1299;22464;-72
2023/04/23 15:13:07;;;;;;;55.10;35.50;;;;;;;20.19;46.33;99445.43;134175;1297;23204;-70
2023/04/23 15:16:19;;;;;;;28.50;19.60;;;;;;;20.11;46.32;99446.87;134351;1296;22276;-73